sensor_id;sensor_type;location;lat;lon;timestamp;P1;durP1;ratioP1;P2;durP2;ratioP2
23206;SDS011;11773;52.570;13.052;2023-02-28T00:00:09;0.50;;;0.50;;
23206;SDS011;11773;52.570;13.052;2023-02-28T00:02:42;0.40;;;0.40;;
23206;SDS011;11773;52.570;13.052;2023-02-28T00:05:13;0.40;;;0.40;;
23206;SDS011;11773;52.570;13.052;2023-02-28T00:07:45;0.50;;;0.50;;
23206;SDS011;11773;52.570;13.052;2023-02-28T00:10:17;0.67;;;0.67;;
23206;SDS011;11773;52.570;13.052;2023-02-28T00:12:50;0.43;;;0.43;;
23206;SDS011;11773;52.570;13.052;2023-02-28T00:15:23;0.50;;;0.50;;
23206;SDS011;11773;52.570;13.052;2023-02-28T00:17:52;0.50;;;0.50;;
23206;SDS011;11773;52.570;13.052;2023-02-28T00:20:22;0.47;;;0.47;;
23206;SDS011;11773;52.570;13.052;2023-02-28T00:22:53;0.50;;;0.40;;
23206;SDS011;11773;52.570;13.052;2023-02-28T00:25:24;0.50;;;0.50;;
23206;SDS011;11773;52.570;13.052;2023-02-28T00:27:54;0.60;;;0.60;;
23206;SDS011;11773;52.570;13.052;2023-02-28T00:30:23;0.30;;;0.30;;
23206;SDS011;11773;52.570;13.052;2023-02-28T00:32:53;0.50;;;0.50;;
23206;SDS011;11773;52.570;13.052;2023-02-28T00:35:22;0.70;;;0.43;;
23206;SDS011;11773;52.570;13.052;2023-02-28T00:37:51;0.50;;;0.50;;
23206;SDS011;11773;52.570;13.052;2023-02-28T00:40:21;0.50;;;0.50;;
23206;SDS011;11773;52.570;13.052;2023-02-28T00:42:50;0.37;;;0.37;;
23206;SDS011;11773;52.570;13.052;2023-02-28T00:45:20;0.30;;;0.30;;
23206;SDS011;11773;52.570;13.052;2023-02-28T00:47:49;0.83;;;0.83;;
23206;SDS011;11773;52.570;13.052;2023-02-28T00:50:19;0.63;;;0.63;;
23206;SDS011;11773;52.570;13.052;2023-02-28T00:52:48;0.70;;;0.70;;
23206;SDS011;11773;52.570;13.052;2023-02-28T00:55:18;1.23;;;0.70;;
23206;SDS011;11773;52.570;13.052;2023-02-28T00:57:48;0.70;;;0.70;;
23206;SDS011;11773;52.570;13.052;2023-02-28T01:00:17;0.50;;;0.50;;
23206;SDS011;11773;52.570;13.052;2023-02-28T01:02:47;0.80;;;0.80;;
23206;SDS011;11773;52.570;13.052;2023-02-28T01:05:16;1.43;;;0.93;;
23206;SDS011;11773;52.570;13.052;2023-02-28T01:07:46;1.03;;;0.90;;
23206;SDS011;11773;52.570;13.052;2023-02-28T01:10:15;1.00;;;0.90;;
23206;SDS011;11773;52.570;13.052;2023-02-28T01:12:45;1.00;;;0.80;;
23206;SDS011;11773;52.570;13.052;2023-02-28T01:15:14;0.73;;;0.73;;
23206;SDS011;11773;52.570;13.052;2023-02-28T01:17:44;0.53;;;0.50;;
23206;SDS011;11773;52.570;13.052;2023-02-28T01:20:13;0.77;;;0.70;;
23206;SDS011;11773;52.570;13.052;2023-02-28T01:22:43;0.63;;;0.63;;
23206;SDS011;11773;52.570;13.052;2023-02-28T01:25:13;0.50;;;0.50;;
23206;SDS011;11773;52.570;13.052;2023-02-28T01:27:43;0.73;;;0.73;;
23206;SDS011;11773;52.570;13.052;2023-02-28T01:30:12;0.50;;;0.50;;
23206;SDS011;11773;52.570;13.052;2023-02-28T01:32:41;0.63;;;0.60;;
23206;SDS011;11773;52.570;13.052;2023-02-28T01:35:11;0.60;;;0.60;;
23206;SDS011;11773;52.570;13.052;2023-02-28T01:37:40;0.70;;;0.70;;
23206;SDS011;11773;52.570;13.052;2023-02-28T01:40:10;0.47;;;0.47;;
23206;SDS011;11773;52.570;13.052;2023-02-28T01:42:40;0.40;;;0.40;;
23206;SDS011;11773;52.570;13.052;2023-02-28T01:45:24;0.40;;;0.40;;
23206;SDS011;11773;52.570;13.052;2023-02-28T01:48:00;0.40;;;0.40;;
23206;SDS011;11773;52.570;13.052;2023-02-28T01:50:36;0.50;;;0.50;;
23206;SDS011;11773;52.570;13.052;2023-02-28T01:53:10;0.63;;;0.63;;
23206;SDS011;11773;52.570;13.052;2023-02-28T01:55:45;0.60;;;0.60;;
23206;SDS011;11773;52.570;13.052;2023-02-28T01:58:17;0.40;;;0.40;;
23206;SDS011;11773;52.570;13.052;2023-02-28T02:00:47;0.40;;;0.40;;
23206;SDS011;11773;52.570;13.052;2023-02-28T02:03:17;0.60;;;0.60;;
23206;SDS011;11773;52.570;13.052;2023-02-28T02:05:48;0.60;;;0.60;;
23206;SDS011;11773;52.570;13.052;2023-02-28T02:08:21;0.40;;;0.40;;
23206;SDS011;11773;52.570;13.052;2023-02-28T02:10:56;0.33;;;0.33;;
23206;SDS011;11773;52.570;13.052;2023-02-28T02:19:21;0.60;;;0.60;;
23206;SDS011;11773;52.570;13.052;2023-02-28T02:25:29;0.43;;;0.43;;
23206;SDS011;11773;52.570;13.052;2023-02-28T02:28:31;0.40;;;0.40;;
23206;SDS011;11773;52.570;13.052;2023-02-28T02:31:20;0.60;;;0.60;;
23206;SDS011;11773;52.570;13.052;2023-02-28T02:37:10;0.43;;;0.43;;
23206;SDS011;11773;52.570;13.052;2023-02-28T02:40:16;0.50;;;0.50;;
23206;SDS011;11773;52.570;13.052;2023-02-28T02:43:01;0.40;;;0.40;;
23206;SDS011;11773;52.570;13.052;2023-02-28T02:45:38;0.40;;;0.40;;
23206;SDS011;11773;52.570;13.052;2023-02-28T02:48:27;0.40;;;0.40;;
23206;SDS011;11773;52.570;13.052;2023-02-28T02:51:01;0.70;;;0.50;;
23206;SDS011;11773;52.570;13.052;2023-02-28T02:53:37;0.40;;;0.40;;
23206;SDS011;11773;52.570;13.052;2023-02-28T02:56:10;0.40;;;0.40;;
23206;SDS011;11773;52.570;13.052;2023-02-28T02:58:42;0.40;;;0.40;;
23206;SDS011;11773;52.570;13.052;2023-02-28T03:01:16;0.70;;;0.70;;
23206;SDS011;11773;52.570;13.052;2023-02-28T03:03:51;0.53;;;0.50;;
23206;SDS011;11773;52.570;13.052;2023-02-28T03:06:28;0.60;;;0.60;;
23206;SDS011;11773;52.570;13.052;2023-02-28T03:08:58;0.50;;;0.50;;
23206;SDS011;11773;52.570;13.052;2023-02-28T03:11:28;0.60;;;0.60;;
23206;SDS011;11773;52.570;13.052;2023-02-28T03:14:10;0.60;;;0.60;;
23206;SDS011;11773;52.570;13.052;2023-02-28T03:16:58;0.80;;;0.60;;
23206;SDS011;11773;52.570;13.052;2023-02-28T03:19:31;0.40;;;0.40;;
23206;SDS011;11773;52.570;13.052;2023-02-28T03:22:23;0.75;;;0.72;;
23206;SDS011;11773;52.570;13.052;2023-02-28T03:28:04;0.50;;;0.50;;
23206;SDS011;11773;52.570;13.052;2023-02-28T03:33:23;0.60;;;0.60;;
23206;SDS011;11773;52.570;13.052;2023-02-28T03:36:02;0.63;;;0.63;;
23206;SDS011;11773;52.570;13.052;2023-02-28T03:38:44;0.43;;;0.43;;
23206;SDS011;11773;52.570;13.052;2023-02-28T03:41:25;0.50;;;0.50;;
23206;SDS011;11773;52.570;13.052;2023-02-28T03:44:03;0.50;;;0.50;;
23206;SDS011;11773;52.570;13.052;2023-02-28T03:47:31;0.47;;;0.47;;
23206;SDS011;11773;52.570;13.052;2023-02-28T03:49:24;0.53;;;0.53;;
23206;SDS011;11773;52.570;13.052;2023-02-28T03:52:01;0.50;;;0.50;;
23206;SDS011;11773;52.570;13.052;2023-02-28T03:54:36;0.50;;;0.50;;
23206;SDS011;11773;52.570;13.052;2023-02-28T03:57:13;0.50;;;0.50;;
23206;SDS011;11773;52.570;13.052;2023-02-28T04:00:09;0.70;;;0.70;;
23206;SDS011;11773;52.570;13.052;2023-02-28T04:02:52;0.60;;;0.60;;
23206;SDS011;11773;52.570;13.052;2023-02-28T04:05:23;0.77;;;0.77;;
23206;SDS011;11773;52.570;13.052;2023-02-28T04:07:54;0.90;;;0.90;;
23206;SDS011;11773;52.570;13.052;2023-02-28T04:10:33;0.80;;;0.80;;
23206;SDS011;11773;52.570;13.052;2023-02-28T04:13:03;0.70;;;0.70;;
23206;SDS011;11773;52.570;13.052;2023-02-28T04:15:32;0.80;;;0.80;;
23206;SDS011;11773;52.570;13.052;2023-02-28T04:18:02;0.60;;;0.60;;
23206;SDS011;11773;52.570;13.052;2023-02-28T04:20:31;0.80;;;0.80;;
23206;SDS011;11773;52.570;13.052;2023-02-28T04:23:01;0.83;;;0.70;;
23206;SDS011;11773;52.570;13.052;2023-02-28T04:25:30;1.00;;;0.90;;
23206;SDS011;11773;52.570;13.052;2023-02-28T04:27:59;1.27;;;1.10;;
23206;SDS011;11773;52.570;13.052;2023-02-28T04:30:29;0.60;;;0.60;;
23206;SDS011;11773;52.570;13.052;2023-02-28T04:33:00;0.70;;;0.70;;
23206;SDS011;11773;52.570;13.052;2023-02-28T04:35:29;1.17;;;0.67;;
23206;SDS011;11773;52.570;13.052;2023-02-28T04:37:59;0.50;;;0.50;;
23206;SDS011;11773;52.570;13.052;2023-02-28T04:40:28;1.00;;;0.90;;
23206;SDS011;11773;52.570;13.052;2023-02-28T04:42:58;0.67;;;0.67;;
23206;SDS011;11773;52.570;13.052;2023-02-28T04:45:27;1.10;;;0.87;;
23206;SDS011;11773;52.570;13.052;2023-02-28T04:47:59;1.87;;;1.10;;
23206;SDS011;11773;52.570;13.052;2023-02-28T04:50:28;0.83;;;0.83;;
23206;SDS011;11773;52.570;13.052;2023-02-28T04:52:57;0.87;;;0.80;;
23206;SDS011;11773;52.570;13.052;2023-02-28T04:55:27;1.10;;;1.00;;
23206;SDS011;11773;52.570;13.052;2023-02-28T04:57:56;2.00;;;1.20;;
23206;SDS011;11773;52.570;13.052;2023-02-28T05:00:26;1.27;;;1.00;;
23206;SDS011;11773;52.570;13.052;2023-02-28T05:02:55;1.03;;;1.00;;
23206;SDS011;11773;52.570;13.052;2023-02-28T05:05:25;1.00;;;0.90;;
23206;SDS011;11773;52.570;13.052;2023-02-28T05:07:54;1.20;;;1.07;;
23206;SDS011;11773;52.570;13.052;2023-02-28T05:10:24;1.23;;;0.83;;
23206;SDS011;11773;52.570;13.052;2023-02-28T05:12:53;1.10;;;1.00;;
23206;SDS011;11773;52.570;13.052;2023-02-28T05:15:23;0.80;;;0.80;;
23206;SDS011;11773;52.570;13.052;2023-02-28T05:17:53;1.10;;;1.00;;
23206;SDS011;11773;52.570;13.052;2023-02-28T05:20:22;0.87;;;0.87;;
23206;SDS011;11773;52.570;13.052;2023-02-28T05:22:52;1.10;;;0.87;;
23206;SDS011;11773;52.570;13.052;2023-02-28T05:25:21;0.87;;;0.80;;
23206;SDS011;11773;52.570;13.052;2023-02-28T05:27:50;0.63;;;0.63;;
23206;SDS011;11773;52.570;13.052;2023-02-28T05:30:20;0.60;;;0.60;;
23206;SDS011;11773;52.570;13.052;2023-02-28T05:32:50;0.83;;;0.83;;
23206;SDS011;11773;52.570;13.052;2023-02-28T05:35:19;0.83;;;0.83;;
23206;SDS011;11773;52.570;13.052;2023-02-28T05:37:49;1.03;;;0.83;;
23206;SDS011;11773;52.570;13.052;2023-02-28T05:40:18;1.13;;;1.03;;
23206;SDS011;11773;52.570;13.052;2023-02-28T05:42:49;0.80;;;0.80;;
23206;SDS011;11773;52.570;13.052;2023-02-28T05:45:19;0.77;;;0.73;;
23206;SDS011;11773;52.570;13.052;2023-02-28T05:47:49;1.03;;;0.70;;
23206;SDS011;11773;52.570;13.052;2023-02-28T05:50:23;0.80;;;0.80;;
23206;SDS011;11773;52.570;13.052;2023-02-28T05:52:52;1.83;;;0.90;;
23206;SDS011;11773;52.570;13.052;2023-02-28T05:55:21;1.20;;;1.10;;
23206;SDS011;11773;52.570;13.052;2023-02-28T05:57:51;1.10;;;1.00;;
23206;SDS011;11773;52.570;13.052;2023-02-28T06:00:21;1.20;;;1.10;;
23206;SDS011;11773;52.570;13.052;2023-02-28T06:02:51;1.20;;;0.70;;
23206;SDS011;11773;52.570;13.052;2023-02-28T06:05:22;0.70;;;0.70;;
23206;SDS011;11773;52.570;13.052;2023-02-28T06:07:52;1.10;;;0.83;;
23206;SDS011;11773;52.570;13.052;2023-02-28T06:10:21;0.87;;;0.83;;
23206;SDS011;11773;52.570;13.052;2023-02-28T06:12:51;0.60;;;0.60;;
23206;SDS011;11773;52.570;13.052;2023-02-28T06:15:20;0.90;;;0.90;;
23206;SDS011;11773;52.570;13.052;2023-02-28T06:17:49;0.90;;;0.87;;
23206;SDS011;11773;52.570;13.052;2023-02-28T06:20:19;1.00;;;0.90;;
23206;SDS011;11773;52.570;13.052;2023-02-28T06:22:48;0.87;;;0.77;;
23206;SDS011;11773;52.570;13.052;2023-02-28T06:25:18;0.90;;;0.80;;
23206;SDS011;11773;52.570;13.052;2023-02-28T06:27:48;0.80;;;0.80;;
23206;SDS011;11773;52.570;13.052;2023-02-28T06:30:17;0.70;;;0.70;;
23206;SDS011;11773;52.570;13.052;2023-02-28T06:32:49;1.37;;;1.10;;
23206;SDS011;11773;52.570;13.052;2023-02-28T06:35:19;1.00;;;0.90;;
23206;SDS011;11773;52.570;13.052;2023-02-28T06:37:48;1.50;;;1.40;;
23206;SDS011;11773;52.570;13.052;2023-02-28T06:40:18;1.60;;;1.50;;
23206;SDS011;11773;52.570;13.052;2023-02-28T06:42:47;1.10;;;1.00;;
23206;SDS011;11773;52.570;13.052;2023-02-28T06:45:17;1.30;;;1.13;;
23206;SDS011;11773;52.570;13.052;2023-02-28T06:47:46;1.17;;;1.13;;
23206;SDS011;11773;52.570;13.052;2023-02-28T06:50:17;1.10;;;1.00;;
23206;SDS011;11773;52.570;13.052;2023-02-28T06:52:47;0.97;;;0.90;;
23206;SDS011;11773;52.570;13.052;2023-02-28T06:55:18;0.97;;;0.93;;
23206;SDS011;11773;52.570;13.052;2023-02-28T06:57:47;1.33;;;1.10;;
23206;SDS011;11773;52.570;13.052;2023-02-28T07:00:17;1.07;;;0.97;;
23206;SDS011;11773;52.570;13.052;2023-02-28T07:02:47;1.00;;;0.93;;
23206;SDS011;11773;52.570;13.052;2023-02-28T07:05:16;1.43;;;1.10;;
23206;SDS011;11773;52.570;13.052;2023-02-28T07:07:46;2.10;;;1.90;;
23206;SDS011;11773;52.570;13.052;2023-02-28T07:10:15;1.50;;;1.40;;
23206;SDS011;11773;52.570;13.052;2023-02-28T07:12:46;1.90;;;1.50;;
23206;SDS011;11773;52.570;13.052;2023-02-28T07:15:15;1.10;;;1.00;;
23206;SDS011;11773;52.570;13.052;2023-02-28T07:17:45;1.43;;;1.23;;
23206;SDS011;11773;52.570;13.052;2023-02-28T07:20:14;1.87;;;1.77;;
23206;SDS011;11773;52.570;13.052;2023-02-28T07:22:44;1.60;;;1.40;;
23206;SDS011;11773;52.570;13.052;2023-02-28T07:25:15;1.47;;;1.20;;
23206;SDS011;11773;52.570;13.052;2023-02-28T07:27:45;1.27;;;1.17;;
23206;SDS011;11773;52.570;13.052;2023-02-28T07:30:14;1.00;;;0.93;;
23206;SDS011;11773;52.570;13.052;2023-02-28T07:32:44;1.27;;;1.17;;
23206;SDS011;11773;52.570;13.052;2023-02-28T07:35:14;0.80;;;0.80;;
23206;SDS011;11773;52.570;13.052;2023-02-28T07:37:43;0.70;;;0.70;;
23206;SDS011;11773;52.570;13.052;2023-02-28T07:40:14;0.80;;;0.80;;
23206;SDS011;11773;52.570;13.052;2023-02-28T07:42:44;0.87;;;0.83;;
23206;SDS011;11773;52.570;13.052;2023-02-28T07:45:14;0.93;;;0.73;;
23206;SDS011;11773;52.570;13.052;2023-02-28T07:47:44;1.07;;;0.97;;
23206;SDS011;11773;52.570;13.052;2023-02-28T07:50:14;0.70;;;0.70;;
23206;SDS011;11773;52.570;13.052;2023-02-28T07:52:44;0.60;;;0.60;;
23206;SDS011;11773;52.570;13.052;2023-02-28T07:55:14;0.90;;;0.73;;
23206;SDS011;11773;52.570;13.052;2023-02-28T07:57:43;0.93;;;0.90;;
23206;SDS011;11773;52.570;13.052;2023-02-28T08:00:13;0.87;;;0.80;;
23206;SDS011;11773;52.570;13.052;2023-02-28T08:02:43;1.63;;;1.53;;
23206;SDS011;11773;52.570;13.052;2023-02-28T08:05:12;1.17;;;1.13;;
23206;SDS011;11773;52.570;13.052;2023-02-28T08:07:42;0.73;;;0.73;;
23206;SDS011;11773;52.570;13.052;2023-02-28T08:10:11;0.97;;;0.87;;
23206;SDS011;11773;52.570;13.052;2023-02-28T08:12:40;0.83;;;0.83;;
23206;SDS011;11773;52.570;13.052;2023-02-28T08:15:10;0.93;;;0.93;;
23206;SDS011;11773;52.570;13.052;2023-02-28T08:17:39;1.50;;;1.40;;
23206;SDS011;11773;52.570;13.052;2023-02-28T08:20:09;1.80;;;1.50;;
23206;SDS011;11773;52.570;13.052;2023-02-28T08:22:40;1.50;;;1.20;;
23206;SDS011;11773;52.570;13.052;2023-02-28T08:25:11;1.73;;;1.37;;
23206;SDS011;11773;52.570;13.052;2023-02-28T08:27:41;1.30;;;1.20;;
23206;SDS011;11773;52.570;13.052;2023-02-28T08:30:11;1.20;;;1.10;;
23206;SDS011;11773;52.570;13.052;2023-02-28T08:32:42;1.10;;;1.00;;
23206;SDS011;11773;52.570;13.052;2023-02-28T08:35:13;1.53;;;1.43;;
23206;SDS011;11773;52.570;13.052;2023-02-28T08:37:42;2.90;;;2.40;;
23206;SDS011;11773;52.570;13.052;2023-02-28T08:40:12;2.57;;;2.10;;
23206;SDS011;11773;52.570;13.052;2023-02-28T08:42:49;2.53;;;2.10;;
23206;SDS011;11773;52.570;13.052;2023-02-28T08:45:14;2.40;;;1.87;;
23206;SDS011;11773;52.570;13.052;2023-02-28T08:47:43;3.70;;;1.97;;
23206;SDS011;11773;52.570;13.052;2023-02-28T08:50:13;3.00;;;2.00;;
23206;SDS011;11773;52.570;13.052;2023-02-28T08:52:43;1.80;;;1.70;;
23206;SDS011;11773;52.570;13.052;2023-02-28T08:55:13;2.37;;;2.10;;
23206;SDS011;11773;52.570;13.052;2023-02-28T08:57:42;2.67;;;2.20;;
23206;SDS011;11773;52.570;13.052;2023-02-28T09:00:12;1.47;;;1.30;;
23206;SDS011;11773;52.570;13.052;2023-02-28T09:02:41;1.43;;;1.33;;
23206;SDS011;11773;52.570;13.052;2023-02-28T09:05:11;1.00;;;1.00;;
23206;SDS011;11773;52.570;13.052;2023-02-28T09:07:40;1.30;;;1.20;;
23206;SDS011;11773;52.570;13.052;2023-02-28T09:10:10;1.43;;;1.07;;
23206;SDS011;11773;52.570;13.052;2023-02-28T09:12:39;1.10;;;0.80;;
23206;SDS011;11773;52.570;13.052;2023-02-28T09:15:09;1.03;;;0.93;;
23206;SDS011;11773;52.570;13.052;2023-02-28T09:17:39;1.00;;;1.00;;
23206;SDS011;11773;52.570;13.052;2023-02-28T09:20:10;0.80;;;0.80;;
23206;SDS011;11773;52.570;13.052;2023-02-28T09:22:40;0.50;;;0.50;;
23206;SDS011;11773;52.570;13.052;2023-02-28T09:25:10;0.60;;;0.60;;
23206;SDS011;11773;52.570;13.052;2023-02-28T09:27:39;0.57;;;0.57;;
23206;SDS011;11773;52.570;13.052;2023-02-28T09:30:09;1.10;;;0.80;;
23206;SDS011;11773;52.570;13.052;2023-02-28T09:32:39;0.93;;;0.80;;
23206;SDS011;11773;52.570;13.052;2023-02-28T09:35:09;0.97;;;0.87;;
23206;SDS011;11773;52.570;13.052;2023-02-28T09:37:40;1.03;;;0.70;;
23206;SDS011;11773;52.570;13.052;2023-02-28T09:40:10;1.50;;;0.97;;
23206;SDS011;11773;52.570;13.052;2023-02-28T09:42:41;0.80;;;0.80;;
23206;SDS011;11773;52.570;13.052;2023-02-28T09:45:26;1.10;;;0.70;;
23206;SDS011;11773;52.570;13.052;2023-02-28T09:48:00;1.30;;;0.90;;
23206;SDS011;11773;52.570;13.052;2023-02-28T09:50:51;1.00;;;1.00;;
23206;SDS011;11773;52.570;13.052;2023-02-28T09:53:21;1.27;;;1.17;;
23206;SDS011;11773;52.570;13.052;2023-02-28T09:56:09;1.30;;;1.20;;
23206;SDS011;11773;52.570;13.052;2023-02-28T09:58:47;1.53;;;1.00;;
23206;SDS011;11773;52.570;13.052;2023-02-28T10:01:33;1.20;;;1.10;;
23206;SDS011;11773;52.570;13.052;2023-02-28T10:04:41;1.93;;;1.33;;
23206;SDS011;11773;52.570;13.052;2023-02-28T10:10:42;1.53;;;1.20;;
23206;SDS011;11773;52.570;13.052;2023-02-28T10:13:23;2.50;;;1.70;;
23206;SDS011;11773;52.570;13.052;2023-02-28T10:16:06;1.97;;;1.53;;
23206;SDS011;11773;52.570;13.052;2023-02-28T10:18:49;1.20;;;1.00;;
23206;SDS011;11773;52.570;13.052;2023-02-28T10:21:31;0.87;;;0.87;;
23206;SDS011;11773;52.570;13.052;2023-02-28T10:24:16;1.37;;;1.27;;
23206;SDS011;11773;52.570;13.052;2023-02-28T10:29:52;1.80;;;1.50;;
23206;SDS011;11773;52.570;13.052;2023-02-28T10:32:29;2.07;;;1.40;;
23206;SDS011;11773;52.570;13.052;2023-02-28T10:37:48;1.80;;;1.50;;
23206;SDS011;11773;52.570;13.052;2023-02-28T10:42:56;1.70;;;1.30;;
23206;SDS011;11773;52.570;13.052;2023-02-28T10:45:32;2.00;;;1.80;;
23206;SDS011;11773;52.570;13.052;2023-02-28T10:48:24;1.43;;;1.10;;
23206;SDS011;11773;52.570;13.052;2023-02-28T10:59:05;1.60;;;1.50;;
23206;SDS011;11773;52.570;13.052;2023-02-28T11:01:57;2.30;;;1.60;;
23206;SDS011;11773;52.570;13.052;2023-02-28T11:07:06;1.50;;;1.40;;
23206;SDS011;11773;52.570;13.052;2023-02-28T11:09:56;1.47;;;1.37;;
23206;SDS011;11773;52.570;13.052;2023-02-28T11:12:32;2.03;;;1.40;;
23206;SDS011;11773;52.570;13.052;2023-02-28T11:15:04;0.70;;;0.70;;
23206;SDS011;11773;52.570;13.052;2023-02-28T11:20:55;1.20;;;1.00;;
23206;SDS011;11773;52.570;13.052;2023-02-28T11:23:29;1.00;;;0.80;;
23206;SDS011;11773;52.570;13.052;2023-02-28T11:26:04;1.57;;;0.90;;
23206;SDS011;11773;52.570;13.052;2023-02-28T11:28:36;0.73;;;0.60;;
23206;SDS011;11773;52.570;13.052;2023-02-28T11:33:53;1.30;;;1.10;;
23206;SDS011;11773;52.570;13.052;2023-02-28T11:36:31;1.20;;;1.10;;
23206;SDS011;11773;52.570;13.052;2023-02-28T11:39:00;0.87;;;0.80;;
23206;SDS011;11773;52.570;13.052;2023-02-28T11:41:50;0.70;;;0.70;;
23206;SDS011;11773;52.570;13.052;2023-02-28T11:56:18;1.57;;;1.10;;
23206;SDS011;11773;52.570;13.052;2023-02-28T11:58:58;1.43;;;1.20;;
23206;SDS011;11773;52.570;13.052;2023-02-28T12:02:18;1.00;;;0.90;;
23206;SDS011;11773;52.570;13.052;2023-02-28T12:13:53;1.57;;;1.33;;
23206;SDS011;11773;52.570;13.052;2023-02-28T12:19:51;1.40;;;1.20;;
23206;SDS011;11773;52.570;13.052;2023-02-28T12:22:29;1.27;;;1.07;;
23206;SDS011;11773;52.570;13.052;2023-02-28T12:25:20;1.03;;;0.90;;
23206;SDS011;11773;52.570;13.052;2023-02-28T12:28:09;0.80;;;0.80;;
23206;SDS011;11773;52.570;13.052;2023-02-28T12:30:47;1.00;;;0.90;;
23206;SDS011;11773;52.570;13.052;2023-02-28T12:33:21;1.50;;;1.30;;
23206;SDS011;11773;52.570;13.052;2023-02-28T12:35:58;1.30;;;1.17;;
23206;SDS011;11773;52.570;13.052;2023-02-28T12:38:35;1.27;;;1.17;;
23206;SDS011;11773;52.570;13.052;2023-02-28T12:41:12;1.47;;;1.30;;
23206;SDS011;11773;52.570;13.052;2023-02-28T12:43:46;1.93;;;1.60;;
23206;SDS011;11773;52.570;13.052;2023-02-28T12:46:26;1.20;;;1.10;;
23206;SDS011;11773;52.570;13.052;2023-02-28T12:49:04;1.27;;;1.17;;
23206;SDS011;11773;52.570;13.052;2023-02-28T12:51:38;1.13;;;1.03;;
23206;SDS011;11773;52.570;13.052;2023-02-28T12:54:25;2.10;;;1.50;;
23206;SDS011;11773;52.570;13.052;2023-02-28T12:59:59;1.63;;;1.40;;
23206;SDS011;11773;52.570;13.052;2023-02-28T13:02:33;3.13;;;1.70;;
23206;SDS011;11773;52.570;13.052;2023-02-28T13:14:03;0.80;;;0.80;;
23206;SDS011;11773;52.570;13.052;2023-02-28T13:16:59;1.83;;;1.50;;
23206;SDS011;11773;52.570;13.052;2023-02-28T13:19:40;1.20;;;1.10;;
23206;SDS011;11773;52.570;13.052;2023-02-28T13:22:16;1.10;;;1.00;;
23206;SDS011;11773;52.570;13.052;2023-02-28T13:24:55;1.83;;;1.40;;
23206;SDS011;11773;52.570;13.052;2023-02-28T13:27:36;2.20;;;1.90;;
23206;SDS011;11773;52.570;13.052;2023-02-28T13:33:33;0.90;;;0.70;;
23206;SDS011;11773;52.570;13.052;2023-02-28T13:36:09;0.63;;;0.63;;
23206;SDS011;11773;52.570;13.052;2023-02-28T13:38:50;0.70;;;0.70;;
23206;SDS011;11773;52.570;13.052;2023-02-28T13:44:26;1.20;;;1.10;;
23206;SDS011;11773;52.570;13.052;2023-02-28T13:49:28;1.00;;;0.70;;
23206;SDS011;11773;52.570;13.052;2023-02-28T14:01:06;1.80;;;1.40;;
23206;SDS011;11773;52.570;13.052;2023-02-28T14:06:49;2.00;;;1.40;;
23206;SDS011;11773;52.570;13.052;2023-02-28T14:09:32;1.57;;;1.33;;
23206;SDS011;11773;52.570;13.052;2023-02-28T14:15:55;1.20;;;1.10;;
23206;SDS011;11773;52.570;13.052;2023-02-28T14:18:32;1.50;;;1.30;;
23206;SDS011;11773;52.570;13.052;2023-02-28T14:21:09;1.43;;;1.20;;
23206;SDS011;11773;52.570;13.052;2023-02-28T14:24:21;1.33;;;1.23;;
23206;SDS011;11773;52.570;13.052;2023-02-28T14:27:21;1.40;;;1.30;;
23206;SDS011;11773;52.570;13.052;2023-02-28T14:33:18;1.20;;;1.10;;
23206;SDS011;11773;52.570;13.052;2023-02-28T14:38:51;1.33;;;1.23;;
23206;SDS011;11773;52.570;13.052;2023-02-28T14:41:28;1.20;;;1.10;;
23206;SDS011;11773;52.570;13.052;2023-02-28T14:46:53;1.57;;;1.40;;
23206;SDS011;11773;52.570;13.052;2023-02-28T14:49:26;1.20;;;1.10;;
23206;SDS011;11773;52.570;13.052;2023-02-28T14:52:15;0.83;;;0.83;;
23206;SDS011;11773;52.570;13.052;2023-02-28T14:54:56;0.80;;;0.67;;
23206;SDS011;11773;52.570;13.052;2023-02-28T14:57:29;0.83;;;0.83;;
23206;SDS011;11773;52.570;13.052;2023-02-28T15:00:16;1.20;;;1.10;;
23206;SDS011;11773;52.570;13.052;2023-02-28T15:02:51;0.77;;;0.77;;
23206;SDS011;11773;52.570;13.052;2023-02-28T15:05:26;0.73;;;0.67;;
23206;SDS011;11773;52.570;13.052;2023-02-28T15:08:04;0.70;;;0.70;;
23206;SDS011;11773;52.570;13.052;2023-02-28T15:10:45;1.20;;;1.10;;
23206;SDS011;11773;52.570;13.052;2023-02-28T15:13:26;0.97;;;0.87;;
23206;SDS011;11773;52.570;13.052;2023-02-28T15:16:17;1.30;;;1.20;;
23206;SDS011;11773;52.570;13.052;2023-02-28T15:19:04;1.33;;;0.87;;
23206;SDS011;11773;52.570;13.052;2023-02-28T15:21:49;1.03;;;0.97;;
23206;SDS011;11773;52.570;13.052;2023-02-28T15:24:38;1.07;;;0.97;;
23206;SDS011;11773;52.570;13.052;2023-02-28T15:27:27;0.93;;;0.80;;
23206;SDS011;11773;52.570;13.052;2023-02-28T15:30:00;1.03;;;0.83;;
23206;SDS011;11773;52.570;13.052;2023-02-28T15:32:37;1.50;;;1.17;;
23206;SDS011;11773;52.570;13.052;2023-02-28T15:35:19;1.30;;;1.20;;
23206;SDS011;11773;52.570;13.052;2023-02-28T15:37:55;1.20;;;1.00;;
23206;SDS011;11773;52.570;13.052;2023-02-28T15:40:35;1.00;;;0.80;;
23206;SDS011;11773;52.570;13.052;2023-02-28T15:43:16;1.00;;;0.90;;
23206;SDS011;11773;52.570;13.052;2023-02-28T15:46:01;1.23;;;1.00;;
23206;SDS011;11773;52.570;13.052;2023-02-28T15:49:00;0.60;;;0.60;;
23206;SDS011;11773;52.570;13.052;2023-02-28T15:51:16;0.60;;;0.60;;
23206;SDS011;11773;52.570;13.052;2023-02-28T15:53:58;0.60;;;0.60;;
23206;SDS011;11773;52.570;13.052;2023-02-28T15:56:32;0.60;;;0.60;;
23206;SDS011;11773;52.570;13.052;2023-02-28T15:59:06;1.00;;;0.87;;
23206;SDS011;11773;52.570;13.052;2023-02-28T16:01:38;0.70;;;0.70;;
23206;SDS011;11773;52.570;13.052;2023-02-28T16:04:15;0.67;;;0.67;;
23206;SDS011;11773;52.570;13.052;2023-02-28T16:09:36;0.47;;;0.40;;
23206;SDS011;11773;52.570;13.052;2023-02-28T16:12:05;0.50;;;0.50;;
23206;SDS011;11773;52.570;13.052;2023-02-28T16:14:38;0.90;;;0.70;;
23206;SDS011;11773;52.570;13.052;2023-02-28T16:17:14;2.03;;;1.43;;
23206;SDS011;11773;52.570;13.052;2023-02-28T16:19:50;2.10;;;1.40;;
23206;SDS011;11773;52.570;13.052;2023-02-28T16:22:20;1.47;;;1.10;;
23206;SDS011;11773;52.570;13.052;2023-02-28T16:24:50;1.17;;;0.70;;
23206;SDS011;11773;52.570;13.052;2023-02-28T16:27:35;0.77;;;0.73;;
23206;SDS011;11773;52.570;13.052;2023-02-28T16:30:03;1.03;;;0.93;;
23206;SDS011;11773;52.570;13.052;2023-02-28T16:32:35;1.50;;;1.23;;
23206;SDS011;11773;52.570;13.052;2023-02-28T16:35:05;2.10;;;1.77;;
23206;SDS011;11773;52.570;13.052;2023-02-28T16:37:37;2.30;;;1.50;;
23206;SDS011;11773;52.570;13.052;2023-02-28T16:40:18;1.13;;;1.03;;
23206;SDS011;11773;52.570;13.052;2023-02-28T16:42:44;1.20;;;0.90;;
23206;SDS011;11773;52.570;13.052;2023-02-28T16:45:20;1.00;;;0.80;;
23206;SDS011;11773;52.570;13.052;2023-02-28T16:47:54;1.20;;;0.70;;
23206;SDS011;11773;52.570;13.052;2023-02-28T16:50:25;0.77;;;0.77;;
23206;SDS011;11773;52.570;13.052;2023-02-28T16:53:01;0.43;;;0.43;;
23206;SDS011;11773;52.570;13.052;2023-02-28T16:55:31;0.50;;;0.50;;
23206;SDS011;11773;52.570;13.052;2023-02-28T16:58:02;0.30;;;0.30;;
23206;SDS011;11773;52.570;13.052;2023-02-28T17:00:32;0.70;;;0.40;;
23206;SDS011;11773;52.570;13.052;2023-02-28T17:03:02;0.53;;;0.30;;
23206;SDS011;11773;52.570;13.052;2023-02-28T17:05:35;0.40;;;0.40;;
23206;SDS011;11773;52.570;13.052;2023-02-28T17:08:06;1.10;;;0.47;;
23206;SDS011;11773;52.570;13.052;2023-02-28T17:10:37;0.30;;;0.20;;
23206;SDS011;11773;52.570;13.052;2023-02-28T17:13:06;0.43;;;0.43;;